createdAt,value
2018-03-31T00:02:08.419Z,13.53
2018-03-31T00:04:37.117Z,12.20
2018-03-31T00:07:06.123Z,12.43
2018-03-31T00:09:34.787Z,12.60
2018-03-31T00:12:03.586Z,12.40
2018-03-31T00:14:33.114Z,11.77
2018-03-31T00:17:02.892Z,12.67
2018-03-31T00:19:31.878Z,11.90
2018-03-31T00:22:01.182Z,12.20
2018-03-31T00:24:30.671Z,12.20
2018-03-31T00:26:59.672Z,11.83
2018-03-31T00:29:28.399Z,12.10
2018-03-31T00:31:57.176Z,11.67
2018-03-31T00:34:26.906Z,11.10
2018-03-31T00:36:55.704Z,11.07
2018-03-31T00:39:24.685Z,11.00
2018-03-31T00:41:53.449Z,10.77
2018-03-31T00:44:22.585Z,10.43
2018-03-31T00:46:51.334Z,10.73
2018-03-31T00:49:20.082Z,10.47
2018-03-31T00:51:48.854Z,11.13
2018-03-31T00:54:18.056Z,11.97
2018-03-31T00:56:46.866Z,10.37
2018-03-31T00:59:15.590Z,10.43
2018-03-31T01:01:44.338Z,10.73
2018-03-31T01:04:14.105Z,10.57
2018-03-31T01:06:42.859Z,10.90
2018-03-31T01:09:11.831Z,10.83
2018-03-31T01:11:41.678Z,9.90
2018-03-31T01:14:10.442Z,10.70
2018-03-31T01:16:39.145Z,10.17
2018-03-31T01:19:08.907Z,9.73
2018-03-31T01:21:37.728Z,10.03
2018-03-31T01:24:06.470Z,10.53
2018-03-31T01:26:36.387Z,9.87
2018-03-31T01:29:05.914Z,10.17
2018-03-31T01:31:35.541Z,10.73
2018-03-31T01:34:04.734Z,9.63
2018-03-31T01:36:33.881Z,10.23
2018-03-31T01:39:02.729Z,9.90
2018-03-31T01:41:31.442Z,10.17
2018-03-31T01:44:00.534Z,9.80
2018-03-31T01:46:29.316Z,9.77
2018-03-31T01:48:58.067Z,9.93
2018-03-31T01:51:26.794Z,9.50
2018-03-31T01:53:56.651Z,9.50
2018-03-31T01:56:25.444Z,10.07
2018-03-31T01:58:54.973Z,9.60
2018-03-31T02:01:23.735Z,9.80
2018-03-31T02:03:52.893Z,9.70
2018-03-31T02:06:22.442Z,10.07
2018-03-31T02:08:51.344Z,10.47
2018-03-31T02:11:20.502Z,9.60
2018-03-31T02:13:49.226Z,10.30
2018-03-31T02:16:17.969Z,8.90
2018-03-31T02:18:46.756Z,10.00
2018-03-31T02:21:15.523Z,9.97
2018-03-31T02:23:44.576Z,9.63
2018-03-31T02:26:13.479Z,10.47
2018-03-31T02:28:42.333Z,9.27
2018-03-31T02:31:11.944Z,9.20
2018-03-31T02:33:41.082Z,9.50
2018-03-31T02:36:09.889Z,10.00
2018-03-31T02:38:38.712Z,9.90
2018-03-31T02:41:07.703Z,9.37
2018-03-31T02:43:36.407Z,9.73
2018-03-31T02:46:05.932Z,9.57
2018-03-31T02:48:35.799Z,9.53
2018-03-31T02:51:04.492Z,9.50
2018-03-31T02:53:33.251Z,9.80
2018-03-31T02:56:02.172Z,9.93
2018-03-31T02:58:31.164Z,9.77
2018-03-31T03:00:59.891Z,10.20
2018-03-31T03:03:28.551Z,9.63
2018-03-31T03:05:57.229Z,10.47
2018-03-31T03:08:26.358Z,10.10
2018-03-31T03:10:55.861Z,9.60
2018-03-31T03:13:24.586Z,10.80
2018-03-31T03:15:53.858Z,10.87
2018-03-31T03:18:22.615Z,10.20
2018-03-31T03:20:51.091Z,10.57
2018-03-31T03:23:19.550Z,9.43
2018-03-31T03:25:48.030Z,10.63
2018-03-31T03:28:17.565Z,9.90
2018-03-31T03:30:46.332Z,10.17
2018-03-31T03:33:15.554Z,10.33
2018-03-31T03:35:44.008Z,9.43
2018-03-31T03:38:12.774Z,10.20
2018-03-31T03:40:42.170Z,8.83
2018-03-31T03:43:11.708Z,9.60
2018-03-31T03:45:40.443Z,10.00
2018-03-31T03:48:09.009Z,10.33
2018-03-31T03:50:37.588Z,10.30
2018-03-31T03:53:06.395Z,10.70
2018-03-31T03:55:35.650Z,10.37
2018-03-31T03:58:04.146Z,10.83
2018-03-31T04:00:32.626Z,10.97
2018-03-31T04:03:01.072Z,9.97
2018-03-31T04:05:30.634Z,10.23
2018-03-31T04:07:59.215Z,9.70
2018-03-31T04:10:27.787Z,10.10
2018-03-31T04:12:56.310Z,10.60
2018-03-31T04:15:25.178Z,11.17
2018-03-31T04:17:53.647Z,11.00
2018-03-31T04:20:22.115Z,10.40
2018-03-31T04:22:50.585Z,10.67
2018-03-31T04:25:19.680Z,10.40
2018-03-31T04:27:48.223Z,10.80
2018-03-31T04:30:17.464Z,10.50
2018-03-31T04:32:46.187Z,10.80
2018-03-31T04:35:14.685Z,10.40
2018-03-31T04:37:43.134Z,10.10
2018-03-31T04:40:12.261Z,10.77
2018-03-31T04:42:41.518Z,10.90
2018-03-31T04:45:10.770Z,11.13
2018-03-31T04:47:40.639Z,11.23
2018-03-31T04:50:09.154Z,10.43
2018-03-31T04:52:38.943Z,11.30
2018-03-31T04:55:07.668Z,11.03
2018-03-31T04:57:36.490Z,11.53
2018-03-31T05:00:05.193Z,11.20
2018-03-31T05:02:33.692Z,10.77
2018-03-31T05:05:02.302Z,11.23
2018-03-31T05:07:31.955Z,11.43
2018-03-31T05:10:00.515Z,10.97
2018-03-31T05:12:29.227Z,11.87
2018-03-31T05:14:57.958Z,10.80
2018-03-31T05:17:27.220Z,10.90
2018-03-31T05:19:55.671Z,11.00
2018-03-31T05:22:24.158Z,11.87
2018-03-31T05:24:53.991Z,11.97
2018-03-31T05:27:22.560Z,11.37
2018-03-31T05:29:51.156Z,11.87
2018-03-31T05:32:20.312Z,11.60
2018-03-31T05:34:49.330Z,10.37
2018-03-31T05:37:17.915Z,10.87
2018-03-31T05:39:46.409Z,11.07
2018-03-31T05:42:14.969Z,11.37
2018-03-31T05:44:44.447Z,10.90
2018-03-31T05:47:13.050Z,11.60
2018-03-31T05:49:41.589Z,11.00
2018-03-31T05:52:10.235Z,11.30
2018-03-31T05:54:39.206Z,11.47
2018-03-31T05:57:07.686Z,11.13
2018-03-31T05:59:36.128Z,11.20
2018-03-31T06:02:05.683Z,10.90
2018-03-31T06:04:34.498Z,11.80
2018-03-31T06:07:02.982Z,10.93
2018-03-31T06:09:31.442Z,10.87
2018-03-31T06:12:00.275Z,10.73
2018-03-31T06:14:28.753Z,10.63
2018-03-31T06:16:57.291Z,11.10
2018-03-31T06:19:25.784Z,11.40
2018-03-31T06:21:54.774Z,11.30
2018-03-31T06:24:23.533Z,11.93
2018-03-31T06:26:52.065Z,11.50
2018-03-31T06:29:20.992Z,10.80
2018-03-31T06:31:49.739Z,11.17
2018-03-31T06:34:18.983Z,11.80
2018-03-31T06:36:47.426Z,10.53
2018-03-31T06:39:15.866Z,11.93
2018-03-31T06:41:44.821Z,11.37
2018-03-31T06:44:13.285Z,11.10
2018-03-31T06:46:42.562Z,11.40
2018-03-31T06:49:11.343Z,10.70
2018-03-31T06:51:39.794Z,10.63
2018-03-31T06:54:08.259Z,11.10
2018-03-31T06:56:37.090Z,11.27
2018-03-31T06:59:06.142Z,11.70
2018-03-31T07:01:34.765Z,10.93
2018-03-31T07:04:04.542Z,11.20
2018-03-31T07:06:33.081Z,11.30
2018-03-31T07:09:01.531Z,11.37
2018-03-31T07:11:30.246Z,10.70
2018-03-31T07:13:58.758Z,11.53
2018-03-31T07:16:27.299Z,11.50
2018-03-31T07:18:56.028Z,11.70
2018-03-31T07:21:24.505Z,11.10
2018-03-31T07:23:53.031Z,11.23
2018-03-31T07:26:21.839Z,11.10
2018-03-31T07:28:51.351Z,10.77
2018-03-31T07:31:19.939Z,11.90
2018-03-31T07:33:49.150Z,12.23
2018-03-31T07:36:18.711Z,11.40
2018-03-31T07:38:47.162Z,10.93
2018-03-31T07:41:15.633Z,10.37
2018-03-31T07:43:44.399Z,10.20
2018-03-31T07:46:13.648Z,10.03
2018-03-31T07:48:42.154Z,9.93
2018-03-31T07:51:10.862Z,9.43
2018-03-31T07:53:39.348Z,10.03
2018-03-31T07:56:07.798Z,10.47
2018-03-31T07:58:36.644Z,9.57
2018-03-31T08:01:05.120Z,10.27
2018-03-31T08:03:33.717Z,9.30
2018-03-31T08:06:02.527Z,10.70
2018-03-31T08:08:31.243Z,11.07
2018-03-31T08:11:00.446Z,10.90
2018-03-31T08:13:29.948Z,10.33
2018-03-31T08:15:59.158Z,9.47
2018-03-31T08:18:27.606Z,9.50
2018-03-31T08:20:56.452Z,9.83
2018-03-31T08:23:24.906Z,9.37
2018-03-31T08:25:53.745Z,9.83
2018-03-31T08:28:22.450Z,10.13
2018-03-31T08:30:50.914Z,10.03
2018-03-31T08:33:20.120Z,10.77
2018-03-31T08:35:48.871Z,9.50
2018-03-31T08:38:17.331Z,10.13
2018-03-31T08:40:45.815Z,9.93
2018-03-31T08:43:14.620Z,9.93
2018-03-31T08:45:43.146Z,10.30
2018-03-31T08:48:11.579Z,10.20
2018-03-31T08:50:40.547Z,9.97
2018-03-31T08:53:09.053Z,9.30
2018-03-31T08:55:38.544Z,9.60
2018-03-31T08:58:07.295Z,10.20
2018-03-31T09:00:35.802Z,9.97
2018-03-31T09:03:04.263Z,9.63
2018-03-31T09:05:33.851Z,10.93
2018-03-31T09:08:02.353Z,9.73
2018-03-31T09:10:31.790Z,9.73
2018-03-31T09:13:00.487Z,10.23
2018-03-31T09:15:28.978Z,10.40
2018-03-31T09:17:57.463Z,10.70
2018-03-31T09:20:26.282Z,10.77
2018-03-31T09:22:54.974Z,10.00
2018-03-31T09:25:24.172Z,10.53
2018-03-31T09:27:53.714Z,10.77
2018-03-31T09:30:22.179Z,11.00
2018-03-31T09:32:50.899Z,11.23
2018-03-31T09:35:19.819Z,11.07
2018-03-31T09:37:48.291Z,11.37
2018-03-31T09:40:16.822Z,11.17
2018-03-31T09:42:46.348Z,11.17
2018-03-31T09:45:14.916Z,11.13
2018-03-31T09:47:43.453Z,11.70
2018-03-31T09:50:12.765Z,24.93
2018-03-31T09:52:41.995Z,12.10
2018-03-31T09:55:10.508Z,12.40
2018-03-31T09:57:39.496Z,13.27
2018-03-31T10:00:08.259Z,13.93
2018-03-31T10:02:36.706Z,12.33
2018-03-31T10:05:05.460Z,13.63
2018-03-31T10:07:34.762Z,13.17
2018-03-31T10:10:04.290Z,13.10
2018-03-31T10:12:34.117Z,13.90
2018-03-31T10:15:02.679Z,13.70
2018-03-31T10:17:31.200Z,15.50
2018-03-31T10:19:59.998Z,15.43
2018-03-31T10:22:28.494Z,15.67
2018-03-31T10:24:57.104Z,14.40
2018-03-31T10:27:26.239Z,14.23
2018-03-31T10:29:54.790Z,14.23
2018-03-31T10:32:24.116Z,14.60
2018-03-31T10:34:52.958Z,15.07
2018-03-31T10:37:21.870Z,13.77
2018-03-31T10:39:52.074Z,14.60
2018-03-31T10:42:20.806Z,13.53
2018-03-31T10:44:49.264Z,14.23
2018-03-31T10:47:18.516Z,15.40
2018-03-31T10:49:47.245Z,18.50
2018-03-31T10:52:16.574Z,21.80
2018-03-31T10:54:45.215Z,200.37
2018-03-31T10:57:14.866Z,91.73
2018-03-31T10:59:44.238Z,49.40
2018-03-31T11:02:13.457Z,131.10
2018-03-31T11:04:42.946Z,137.07
2018-03-31T11:07:12.213Z,49.67
2018-03-31T11:09:40.698Z,38.13
2018-03-31T11:12:09.707Z,41.50
2018-03-31T11:14:38.940Z,42.10
2018-03-31T11:17:07.434Z,24.33
2018-03-31T11:19:36.839Z,19.83
2018-03-31T11:22:06.129Z,18.73
2018-03-31T11:24:34.668Z,27.80
2018-03-31T11:27:03.419Z,17.43
2018-03-31T11:29:31.919Z,214.30
2018-03-31T11:32:00.490Z,121.00
2018-03-31T11:34:29.230Z,117.90
2018-03-31T11:36:57.867Z,25.23
2018-03-31T11:39:26.367Z,22.73
2018-03-31T11:41:55.215Z,18.40
2018-03-31T11:44:24.905Z,45.83
2018-03-31T11:46:53.399Z,59.07
2018-03-31T11:49:23.174Z,30.30
2018-03-31T11:51:52.400Z,28.40
2018-03-31T11:54:20.832Z,28.70
2018-03-31T11:56:49.579Z,26.97
2018-03-31T11:59:18.119Z,21.93
2018-03-31T12:01:46.654Z,27.20
2018-03-31T12:04:15.369Z,25.83
2018-03-31T12:06:44.091Z,33.80
2018-03-31T12:09:12.591Z,24.87
2018-03-31T12:11:41.099Z,24.13
2018-03-31T12:14:10.240Z,28.93
2018-03-31T12:16:38.706Z,24.10
2018-03-31T12:19:07.966Z,21.63
2018-03-31T12:21:37.820Z,22.13
2018-03-31T12:24:06.320Z,21.27
2018-03-31T12:26:35.827Z,20.20
2018-03-31T12:29:04.558Z,21.50
2018-03-31T12:31:33.064Z,19.50
2018-03-31T12:34:01.942Z,18.57
2018-03-31T12:36:30.688Z,18.00
2018-03-31T12:38:59.178Z,17.87
2018-03-31T12:41:28.108Z,18.60
2018-03-31T12:43:57.622Z,16.10
2018-03-31T12:46:26.856Z,16.10
2018-03-31T12:48:55.355Z,21.87
2018-03-31T12:51:25.922Z,16.00
2018-03-31T12:53:55.227Z,16.07
2018-03-31T12:56:24.558Z,16.80
2018-03-31T12:58:53.343Z,16.10
2018-03-31T13:01:22.059Z,16.03
2018-03-31T13:03:50.523Z,16.20
2018-03-31T13:06:20.195Z,17.30
2018-03-31T13:08:49.449Z,16.30
2018-03-31T13:11:17.953Z,17.50
2018-03-31T13:13:47.497Z,16.47
2018-03-31T13:16:16.097Z,18.27
2018-03-31T13:18:44.875Z,17.77
2018-03-31T13:21:13.912Z,21.30
2018-03-31T13:23:42.358Z,17.33
2018-03-31T13:26:10.869Z,19.93
2018-03-31T13:28:39.719Z,17.33
2018-03-31T13:31:08.211Z,17.80
2018-03-31T13:33:36.698Z,17.57
2018-03-31T13:36:06.915Z,15.90
2018-03-31T13:38:35.689Z,17.40
2018-03-31T13:41:04.472Z,17.87
2018-03-31T13:43:33.294Z,18.23
2018-03-31T13:46:01.847Z,19.20
2018-03-31T13:48:30.820Z,18.63
2018-03-31T13:51:00.647Z,17.27
2018-03-31T13:53:29.131Z,17.77
2018-03-31T13:55:57.932Z,19.27
2018-03-31T13:58:26.981Z,18.93
2018-03-31T14:00:56.290Z,22.77
2018-03-31T14:03:24.934Z,23.37
2018-03-31T14:05:54.447Z,16.80
2018-03-31T14:08:22.928Z,16.40
2018-03-31T14:10:52.235Z,14.70
2018-03-31T14:13:21.096Z,14.57
2018-03-31T14:15:49.662Z,16.23
2018-03-31T14:18:18.711Z,14.23
2018-03-31T14:20:47.629Z,15.37
2018-03-31T14:23:16.998Z,16.20
2018-03-31T14:25:46.750Z,16.37
2018-03-31T14:28:16.632Z,14.73
2018-03-31T14:30:45.873Z,15.23
2018-03-31T14:33:14.575Z,17.73
2018-03-31T14:35:44.372Z,16.03
2018-03-31T14:38:13.343Z,17.23
2018-03-31T14:40:42.471Z,19.20
2018-03-31T14:43:11.404Z,20.30
2018-03-31T14:45:40.647Z,18.23
2018-03-31T14:48:09.220Z,17.40
2018-03-31T14:50:38.786Z,17.70
2018-03-31T14:53:08.028Z,17.47
2018-03-31T14:55:36.731Z,19.63
2018-03-31T14:58:05.514Z,20.60
2018-03-31T15:00:34.051Z,20.20
2018-03-31T15:03:04.532Z,23.00
2018-03-31T15:05:34.336Z,23.40
2018-03-31T15:08:03.726Z,21.60
2018-03-31T15:10:32.244Z,20.17
2018-03-31T15:13:01.051Z,20.37
2018-03-31T15:15:30.307Z,20.07
2018-03-31T15:17:58.802Z,17.70
2018-03-31T15:20:28.546Z,18.50
2018-03-31T15:22:58.050Z,19.00
2018-03-31T15:25:26.545Z,17.70
2018-03-31T15:27:55.262Z,15.80
2018-03-31T15:30:24.066Z,17.00
2018-03-31T15:32:54.066Z,15.97
2018-03-31T15:35:22.578Z,16.40
2018-03-31T15:37:53.608Z,18.20
2018-03-31T15:40:22.288Z,19.50
2018-03-31T15:42:50.778Z,19.63
2018-03-31T15:45:19.291Z,18.77
2018-03-31T15:47:48.055Z,20.20
2018-03-31T15:50:16.506Z,20.50
2018-03-31T15:52:45.096Z,18.80
2018-03-31T15:55:13.984Z,20.27
2018-03-31T15:57:42.544Z,21.77
2018-03-31T16:00:11.171Z,19.00
2018-03-31T16:02:40.050Z,21.00
2018-03-31T16:05:08.551Z,22.10
2018-03-31T16:07:37.194Z,20.90
2018-03-31T16:10:05.965Z,22.40
2018-03-31T16:12:34.495Z,23.43
2018-03-31T16:15:03.096Z,23.57
2018-03-31T16:17:32.730Z,23.20
2018-03-31T16:20:01.383Z,25.00
2018-03-31T16:22:30.684Z,25.07
2018-03-31T16:25:00.188Z,26.70
2018-03-31T16:27:29.786Z,27.93
2018-03-31T16:29:59.120Z,28.63
2018-03-31T16:32:27.918Z,28.70
2018-03-31T16:34:56.541Z,30.90
2018-03-31T16:37:25.050Z,33.60
2018-03-31T16:39:53.965Z,33.27
2018-03-31T16:42:22.439Z,35.87
2018-03-31T16:44:51.685Z,39.90
2018-03-31T16:47:20.405Z,39.73
2018-03-31T16:49:49.680Z,37.50
2018-03-31T16:52:20.113Z,34.73
2018-03-31T16:54:48.988Z,35.07
2018-03-31T16:57:17.514Z,37.47
2018-03-31T16:59:46.095Z,42.20
2018-03-31T17:02:15.709Z,43.97
2018-03-31T17:04:44.224Z,52.20
2018-03-31T17:07:12.785Z,52.80
2018-03-31T17:09:41.565Z,48.47
2018-03-31T17:12:10.055Z,42.03
2018-03-31T17:14:38.759Z,34.73
2018-03-31T17:17:07.690Z,32.00
2018-03-31T17:19:36.956Z,33.50
2018-03-31T17:22:05.426Z,33.33
2018-03-31T17:24:34.217Z,34.77
2018-03-31T17:27:02.975Z,37.10
2018-03-31T17:29:32.213Z,42.43
2018-03-31T17:32:00.918Z,43.57
2018-03-31T17:34:29.495Z,48.80
2018-03-31T17:36:58.443Z,60.93
2018-03-31T17:39:27.309Z,81.93
2018-03-31T17:41:56.554Z,83.80
2018-03-31T17:44:25.266Z,70.10
2018-03-31T17:46:53.799Z,57.57
2018-03-31T17:49:23.314Z,48.73
2018-03-31T17:51:52.056Z,40.77
2018-03-31T17:54:20.550Z,41.33
2018-03-31T17:56:50.067Z,40.87
2018-03-31T17:59:18.546Z,47.00
2018-03-31T18:01:47.112Z,52.60
2018-03-31T18:04:16.194Z,55.93
2018-03-31T18:06:44.895Z,60.93
2018-03-31T18:09:13.411Z,78.47
2018-03-31T18:11:43.230Z,89.70
2018-03-31T18:14:11.724Z,85.30
2018-03-31T18:16:40.342Z,76.10
2018-03-31T18:19:10.019Z,62.90
2018-03-31T18:21:38.489Z,60.90
2018-03-31T18:24:07.031Z,73.70
2018-03-31T18:26:36.094Z,74.23
2018-03-31T18:29:04.575Z,73.63
2018-03-31T18:31:33.481Z,74.80
2018-03-31T18:34:03.159Z,90.03
2018-03-31T18:36:32.100Z,97.37
2018-03-31T18:39:00.703Z,114.70
2018-03-31T18:41:29.532Z,109.90
2018-03-31T18:43:58.222Z,117.93
2018-03-31T18:46:27.564Z,122.00
2018-03-31T18:48:56.462Z,141.50
2018-03-31T18:51:25.033Z,140.60
2018-03-31T18:53:53.632Z,157.93
2018-03-31T18:56:22.398Z,163.37
2018-03-31T18:58:50.854Z,145.17
2018-03-31T19:01:20.241Z,133.33
2018-03-31T19:03:49.793Z,128.80
2018-03-31T19:06:18.599Z,118.03
2018-03-31T19:08:50.004Z,120.50
2018-03-31T19:11:19.526Z,102.83
2018-03-31T19:13:48.036Z,100.43
2018-03-31T19:16:16.774Z,113.13
2018-03-31T19:18:45.570Z,97.00
2018-03-31T19:21:14.846Z,87.50
2018-03-31T19:23:44.372Z,74.97
2018-03-31T19:26:13.194Z,79.33
2018-03-31T19:28:42.074Z,79.57
2018-03-31T19:31:10.535Z,104.83
2018-03-31T19:33:39.045Z,99.77
2018-03-31T19:36:12.290Z,103.43
2018-03-31T19:38:40.830Z,106.37
2018-03-31T19:41:09.306Z,124.63
2018-03-31T19:43:38.639Z,120.67
2018-03-31T19:46:07.198Z,153.67
2018-03-31T19:48:35.998Z,133.13
2018-03-31T19:51:04.457Z,130.20
2018-03-31T19:53:32.971Z,110.70
2018-03-31T19:56:02.414Z,111.77
2018-03-31T19:58:30.910Z,104.10
2018-03-31T20:01:00.621Z,112.00
2018-03-31T20:03:29.528Z,125.80
2018-03-31T20:05:58.035Z,146.30
2018-03-31T20:08:27.934Z,116.30
2018-03-31T20:10:57.670Z,106.20
2018-03-31T20:13:27.306Z,95.43
2018-03-31T20:15:56.916Z,86.90
2018-03-31T20:18:25.703Z,95.93
2018-03-31T20:20:54.264Z,96.30
2018-03-31T20:23:23.511Z,95.80
2018-03-31T20:25:52.293Z,96.67
2018-03-31T20:28:22.950Z,108.40
2018-03-31T20:30:51.553Z,101.00
2018-03-31T20:33:21.139Z,86.47
2018-03-31T20:35:49.684Z,89.17
2018-03-31T20:38:18.977Z,90.17
2018-03-31T20:40:48.616Z,84.80
2018-03-31T20:43:17.921Z,79.27
2018-03-31T20:45:46.456Z,67.57
2018-03-31T20:48:15.259Z,58.73
2018-03-31T20:50:43.774Z,56.43
2018-03-31T20:53:12.260Z,58.90
2018-03-31T20:55:41.013Z,60.67
2018-03-31T20:58:10.101Z,61.80
2018-03-31T21:00:38.657Z,71.43
2018-03-31T21:03:08.174Z,76.50
2018-03-31T21:05:37.517Z,84.77
2018-03-31T21:08:06.043Z,85.67
2018-03-31T21:10:35.964Z,76.17
2018-03-31T21:13:04.475Z,71.03
2018-03-31T21:15:32.972Z,80.77
2018-03-31T21:18:01.836Z,60.67
2018-03-31T21:20:31.169Z,60.80
2018-03-31T21:22:59.719Z,66.23
2018-03-31T21:25:28.450Z,64.20
2018-03-31T21:27:56.885Z,66.17
2018-03-31T21:30:25.364Z,73.03
2018-03-31T21:32:54.447Z,69.80
2018-03-31T21:35:22.895Z,69.67
2018-03-31T21:37:51.368Z,54.13
2018-03-31T21:40:20.091Z,47.37
2018-03-31T21:42:49.314Z,40.07
2018-03-31T21:45:17.832Z,39.03
2018-03-31T21:47:46.575Z,40.47
2018-03-31T21:50:15.438Z,38.73
2018-03-31T21:52:45.151Z,43.10
2018-03-31T21:55:14.519Z,46.40
2018-03-31T21:57:43.330Z,59.50
2018-03-31T22:00:11.955Z,52.07
2018-03-31T22:02:40.736Z,53.10
2018-03-31T22:05:10.235Z,44.90
2018-03-31T22:07:38.742Z,41.70
2018-03-31T22:10:07.472Z,37.47
2018-03-31T22:12:36.942Z,43.57
2018-03-31T22:15:10.526Z,39.77
2018-03-31T22:17:39.189Z,47.40
2018-03-31T22:20:07.978Z,47.27
2018-03-31T22:22:36.480Z,80.67
2018-03-31T22:25:04.943Z,98.87
2018-03-31T22:27:33.691Z,87.27
2018-03-31T22:30:02.119Z,67.40
2018-03-31T22:32:30.584Z,47.57
2018-03-31T22:34:59.430Z,39.57
2018-03-31T22:37:28.118Z,37.47
2018-03-31T22:39:57.386Z,39.70
2018-03-31T22:42:26.920Z,40.43
2018-03-31T22:44:56.169Z,39.00
2018-03-31T22:47:24.625Z,37.03
2018-03-31T22:49:54.194Z,40.83
2018-03-31T22:52:22.798Z,41.00
2018-03-31T22:54:52.063Z,44.17
2018-03-31T22:57:21.074Z,44.47
2018-03-31T22:59:49.730Z,39.80
2018-03-31T23:02:19.267Z,40.07
2018-03-31T23:04:48.482Z,40.67
2018-03-31T23:07:18.097Z,36.00
2018-03-31T23:09:46.816Z,37.37
2018-03-31T23:12:15.906Z,33.93
2018-03-31T23:14:44.710Z,34.63
2018-03-31T23:17:14.206Z,33.40
2018-03-31T23:19:44.430Z,31.23
2018-03-31T23:22:13.975Z,30.03
2018-03-31T23:24:43.267Z,29.63
2018-03-31T23:27:12.637Z,31.17
2018-03-31T23:29:41.407Z,33.57
2018-03-31T23:32:10.208Z,31.30
2018-03-31T23:34:38.948Z,31.90
2018-03-31T23:37:08.184Z,34.37
2018-03-31T23:39:36.657Z,34.23
2018-03-31T23:42:05.241Z,35.27
2018-03-31T23:44:34.003Z,34.97
2018-03-31T23:47:02.817Z,34.90
2018-03-31T23:49:31.396Z,34.03
2018-03-31T23:52:00.192Z,32.40
2018-03-31T23:54:29.520Z,31.37
2018-03-31T23:56:58.115Z,32.23
2018-03-31T23:59:26.648Z,31.00
